createdAt,value
2019-02-04T00:00:45.016Z,95107.89
2019-02-04T00:03:11.382Z,95101.40
2019-02-04T00:05:37.908Z,95095.53
2019-02-04T00:08:04.263Z,95099.57
2019-02-04T00:10:30.608Z,95109.17
2019-02-04T00:12:56.960Z,95123.48
2019-02-04T00:15:23.297Z,95121.17
2019-02-04T00:17:49.664Z,95113.48
2019-02-04T00:20:16.048Z,95104.25
2019-02-04T00:22:42.527Z,95109.03
2019-02-04T00:25:08.958Z,95118.34
2019-02-04T00:27:35.514Z,95121.86
2019-02-04T00:30:01.860Z,95124.24
2019-02-04T00:32:28.231Z,95118.80
2019-02-04T00:34:54.706Z,95123.93
2019-02-04T00:37:21.063Z,95130.54
2019-02-04T00:39:47.399Z,95139.80
2019-02-04T00:42:13.757Z,95148.92
2019-02-04T00:44:40.094Z,95150.52
2019-02-04T00:47:06.448Z,95155.45
2019-02-04T00:49:32.805Z,95158.20
2019-02-04T00:51:59.173Z,95162.39
2019-02-04T00:54:25.582Z,95159.75
2019-02-04T00:56:51.950Z,95153.91
2019-02-04T00:59:18.313Z,95167.33
2019-02-04T01:01:44.656Z,95168.01
2019-02-04T01:04:11.002Z,95172.56
2019-02-04T01:06:37.374Z,95167.38
2019-02-04T01:09:03.830Z,95167.20
2019-02-04T01:11:30.238Z,95166.37
2019-02-04T01:13:56.534Z,95164.24
2019-02-04T01:16:22.900Z,95161.59
2019-02-04T01:18:49.262Z,95161.03
2019-02-04T01:21:15.588Z,95156.88
2019-02-04T01:23:41.980Z,95170.98
2019-02-04T01:26:08.318Z,95168.03
2019-02-04T01:28:34.670Z,95161.47
2019-02-04T01:31:01.002Z,95159.54
2019-02-04T01:33:27.361Z,95167.48
2019-02-04T01:35:53.711Z,95164.47
2019-02-04T01:38:20.042Z,95168.58
2019-02-04T01:40:46.427Z,95161.19
2019-02-04T01:43:12.768Z,95161.56
2019-02-04T01:45:39.097Z,95175.62
2019-02-04T01:48:05.448Z,95173.02
2019-02-04T01:50:31.791Z,95185.03
2019-02-04T01:52:58.113Z,95178.67
2019-02-04T01:55:24.453Z,95184.00
2019-02-04T01:57:50.794Z,95179.24
2019-02-04T02:00:17.135Z,95186.63
2019-02-04T02:02:43.601Z,95183.72
2019-02-04T02:05:09.996Z,95185.54
2019-02-04T02:07:36.328Z,95179.32
2019-02-04T02:10:02.658Z,95185.14
2019-02-04T02:12:28.998Z,95193.23
2019-02-04T02:14:55.382Z,95195.85
2019-02-04T02:17:26.407Z,95195.11
2019-02-04T02:19:48.069Z,95211.97
2019-02-04T02:22:14.448Z,95214.58
2019-02-04T02:24:40.919Z,95212.27
2019-02-04T02:27:07.190Z,95218.23
2019-02-04T02:29:33.521Z,95215.55
2019-02-04T02:31:59.917Z,95218.73
2019-02-04T02:34:26.239Z,95220.22
2019-02-04T02:36:52.583Z,95219.39
2019-02-04T02:39:18.963Z,95223.04
2019-02-04T02:41:45.292Z,95216.08
2019-02-04T02:44:11.704Z,95215.88
2019-02-04T02:46:37.976Z,95213.55
2019-02-04T02:49:04.321Z,95217.29
2019-02-04T02:51:30.645Z,95226.11
2019-02-04T02:53:56.975Z,95223.53
2019-02-04T02:56:23.315Z,95229.02
2019-02-04T02:58:49.664Z,95229.75
2019-02-04T03:01:16.010Z,95237.50
2019-02-04T03:03:42.344Z,95237.96
2019-02-04T03:06:08.737Z,95243.35
2019-02-04T03:08:35.071Z,95240.70
2019-02-04T03:11:01.417Z,95242.69
2019-02-04T03:13:27.755Z,95236.27
2019-02-04T03:15:54.196Z,95238.29
2019-02-04T03:18:20.542Z,95237.71
2019-02-04T03:20:46.862Z,95239.58
2019-02-04T03:23:13.226Z,95236.67
2019-02-04T03:25:39.554Z,95242.64
2019-02-04T03:28:06.036Z,95239.16
2019-02-04T03:30:32.364Z,95244.09
2019-02-04T03:32:58.713Z,95235.09
2019-02-04T03:35:25.021Z,95240.70
2019-02-04T03:37:52.314Z,95248.08
2019-02-04T03:40:17.849Z,95245.87
2019-02-04T03:42:44.176Z,95243.67
2019-02-04T03:45:10.610Z,95243.09
2019-02-04T03:47:36.940Z,95243.92
2019-02-04T03:50:03.258Z,95248.23
2019-02-04T03:52:29.590Z,95249.43
2019-02-04T03:54:55.929Z,95252.63
2019-02-04T03:57:22.271Z,95254.16
2019-02-04T03:59:48.645Z,95240.72
2019-02-04T04:02:15.000Z,95236.11
2019-02-04T04:04:41.335Z,95243.16
2019-02-04T04:07:07.667Z,95241.45
2019-02-04T04:09:34.068Z,95246.25
2019-02-04T04:12:00.323Z,95248.19
2019-02-04T04:14:26.647Z,95240.72
2019-02-04T04:16:53.049Z,95241.70
2019-02-04T04:19:19.364Z,95248.98
2019-02-04T04:21:45.720Z,95247.61
2019-02-04T04:24:12.104Z,95249.72
2019-02-04T04:26:38.455Z,95249.53
2019-02-04T04:29:04.850Z,95242.28
2019-02-04T04:31:31.145Z,95245.77
2019-02-04T04:33:57.472Z,95245.68
2019-02-04T04:36:23.834Z,95251.06
2019-02-04T04:38:50.138Z,95256.45
2019-02-04T04:41:16.478Z,95260.31
2019-02-04T04:43:42.832Z,95251.38
2019-02-04T04:46:09.149Z,95249.13
2019-02-04T04:48:35.477Z,95253.60
2019-02-04T04:51:01.868Z,95248.36
2019-02-04T04:53:28.255Z,95257.17
2019-02-04T04:55:54.611Z,95275.99
2019-02-04T04:58:20.946Z,95279.94
2019-02-04T05:00:47.315Z,95277.98
2019-02-04T05:03:13.665Z,95282.45
2019-02-04T05:05:40.113Z,95289.70
2019-02-04T05:08:06.527Z,95289.59
2019-02-04T05:10:32.859Z,95285.72
2019-02-04T05:12:59.187Z,95287.02
2019-02-04T05:15:25.556Z,95287.38
2019-02-04T05:17:52.705Z,95285.41
2019-02-04T05:20:18.314Z,95295.25
2019-02-04T05:22:44.658Z,95281.09
2019-02-04T05:25:10.982Z,95284.73
2019-02-04T05:27:37.335Z,95291.88
2019-02-04T05:30:03.705Z,95304.06
2019-02-04T05:32:30.043Z,95307.34
2019-02-04T05:34:57.507Z,95315.43
2019-02-04T05:37:22.731Z,95310.19
2019-02-04T05:39:49.125Z,95308.22
2019-02-04T05:42:15.513Z,95314.66
2019-02-04T05:44:41.849Z,95314.66
2019-02-04T05:47:08.353Z,95317.98
2019-02-04T05:49:34.775Z,95338.80
2019-02-04T05:52:01.104Z,95328.75
2019-02-04T05:54:27.505Z,95323.05
2019-02-04T05:56:53.894Z,95332.77
2019-02-04T05:59:20.239Z,95339.78
2019-02-04T06:01:46.577Z,95341.31
2019-02-04T06:04:12.968Z,95335.92
2019-02-04T06:06:39.362Z,95349.06
2019-02-04T06:09:05.699Z,95347.94
2019-02-04T06:11:32.082Z,95346.54
2019-02-04T06:13:58.399Z,95344.16
2019-02-04T06:16:24.743Z,95350.27
2019-02-04T06:19:00.530Z,95341.65
2019-02-04T06:21:17.420Z,95340.84
2019-02-04T06:23:43.821Z,95348.67
2019-02-04T06:26:10.192Z,95345.88
2019-02-04T06:28:36.522Z,95350.61
2019-02-04T06:31:02.924Z,95357.41
2019-02-04T06:33:29.341Z,95361.64
2019-02-04T06:35:55.670Z,95360.92
2019-02-04T06:38:22.016Z,95363.28
2019-02-04T06:40:48.386Z,95359.84
2019-02-04T06:43:14.705Z,95357.56
2019-02-04T06:45:41.057Z,95355.82
2019-02-04T06:48:07.427Z,95353.16
2019-02-04T06:50:33.800Z,95346.58
2019-02-04T06:53:00.131Z,95359.38
2019-02-04T06:55:26.461Z,95365.98
2019-02-04T06:57:52.794Z,95362.98
2019-02-04T07:00:19.129Z,95354.84
2019-02-04T07:02:45.491Z,95359.77
2019-02-04T07:05:11.805Z,95359.27
2019-02-04T07:07:38.206Z,95363.37
2019-02-04T07:10:04.579Z,95375.80
2019-02-04T07:12:30.928Z,95379.98
2019-02-04T07:14:57.248Z,95382.23
2019-02-04T07:17:23.718Z,95381.05
2019-02-04T07:19:50.113Z,95377.22
2019-02-04T07:22:16.540Z,95388.23
2019-02-04T07:24:43.252Z,95394.46
2019-02-04T07:27:09.279Z,95391.05
2019-02-04T07:29:35.710Z,95384.88
2019-02-04T07:32:02.060Z,95382.77
2019-02-04T07:34:28.464Z,95393.40
2019-02-04T07:36:54.870Z,95396.81
2019-02-04T07:39:21.194Z,95395.93
2019-02-04T07:41:47.532Z,95404.92
2019-02-04T07:44:13.900Z,95419.24
2019-02-04T07:46:40.389Z,95416.57
2019-02-04T07:49:07.991Z,95420.21
2019-02-04T07:51:33.106Z,95421.73
2019-02-04T07:53:59.497Z,95419.92
2019-02-04T07:56:25.830Z,95417.77
2019-02-04T07:58:52.171Z,95418.95
2019-02-04T08:01:18.518Z,95422.03
2019-02-04T08:03:44.868Z,95432.59
2019-02-04T08:06:11.245Z,95442.22
2019-02-04T08:08:37.585Z,95441.29
2019-02-04T08:11:04.070Z,95429.78
2019-02-04T08:13:30.404Z,95446.45
2019-02-04T08:15:56.788Z,95449.17
2019-02-04T08:18:23.813Z,95448.83
2019-02-04T08:20:50.240Z,95450.34
2019-02-04T08:23:16.569Z,95455.52
2019-02-04T08:25:42.922Z,95457.63
2019-02-04T08:28:09.432Z,95459.73
2019-02-04T08:30:37.931Z,95455.99
2019-02-04T08:33:03.283Z,95462.44
2019-02-04T08:35:29.652Z,95461.05
2019-02-04T08:37:56.008Z,95460.95
2019-02-04T08:40:22.358Z,95453.80
2019-02-04T08:42:48.701Z,95453.80
2019-02-04T08:45:15.184Z,95445.20
2019-02-04T08:47:41.611Z,95452.23
2019-02-04T08:50:10.091Z,95452.39
2019-02-04T08:52:36.560Z,95453.20
2019-02-04T08:55:02.949Z,95458.60
2019-02-04T08:57:29.313Z,95458.69
2019-02-04T08:59:55.698Z,95463.66
2019-02-04T09:02:22.149Z,95458.36
2019-02-04T09:04:48.501Z,95464.22
2019-02-04T09:07:14.845Z,95461.17
2019-02-04T09:09:41.212Z,95461.55
2019-02-04T09:12:07.872Z,95458.73
2019-02-04T09:14:34.283Z,95459.54
2019-02-04T09:17:00.672Z,95458.13
2019-02-04T09:19:27.038Z,95453.77
2019-02-04T09:21:53.376Z,95457.64
2019-02-04T09:24:19.737Z,95457.05
2019-02-04T09:26:46.075Z,95459.88
2019-02-04T09:29:12.426Z,95464.60
2019-02-04T09:31:38.788Z,95457.88
2019-02-04T09:34:05.191Z,95462.61
2019-02-04T09:36:31.665Z,95460.81
2019-02-04T09:38:58.189Z,95457.64
2019-02-04T09:41:24.547Z,95460.47
2019-02-04T09:43:50.923Z,95450.49
2019-02-04T09:46:17.306Z,95451.44
2019-02-04T09:48:43.747Z,95456.95
2019-02-04T09:51:10.147Z,95456.73
2019-02-04T09:53:36.489Z,95453.42
2019-02-04T09:56:02.880Z,95447.56
2019-02-04T09:58:29.310Z,95446.72
2019-02-04T10:00:55.672Z,95448.84
2019-02-04T10:03:22.089Z,95448.38
2019-02-04T10:05:48.444Z,95449.92
2019-02-04T10:08:14.855Z,95446.88
2019-02-04T10:10:41.284Z,95438.74
2019-02-04T10:13:07.632Z,95437.22
2019-02-04T10:15:34.152Z,95432.78
2019-02-04T10:18:00.570Z,95426.55
2019-02-04T10:20:34.127Z,95417.63
2019-02-04T10:22:53.292Z,95419.38
2019-02-04T10:25:19.660Z,95412.34
2019-02-04T10:27:46.068Z,95410.33
2019-02-04T10:30:12.430Z,95411.05
2019-02-04T10:32:38.752Z,95407.52
2019-02-04T10:35:16.406Z,95400.82
2019-02-04T10:37:31.606Z,95402.01
2019-02-04T10:39:57.915Z,95415.16
2019-02-04T10:42:24.322Z,95412.23
2019-02-04T10:44:50.828Z,95414.20
2019-02-04T10:47:17.132Z,95403.97
2019-02-04T10:49:43.446Z,95398.72
2019-02-04T10:52:09.839Z,95390.70
2019-02-04T10:54:36.210Z,95386.98
2019-02-04T10:57:02.631Z,95384.14
2019-02-04T10:59:29.902Z,95391.78
2019-02-04T11:01:55.302Z,95389.91
2019-02-04T11:04:21.677Z,95387.33
2019-02-04T11:06:48.063Z,95386.51
2019-02-04T11:09:14.480Z,95387.42
2019-02-04T11:11:40.771Z,95384.26
2019-02-04T11:14:07.101Z,95389.91
2019-02-04T11:16:33.487Z,95392.48
2019-02-04T11:18:59.885Z,95383.88
2019-02-04T11:21:26.250Z,95378.15
2019-02-04T11:23:52.750Z,95382.14
2019-02-04T11:26:19.116Z,95384.50
2019-02-04T11:28:45.497Z,95386.28
2019-02-04T11:31:12.045Z,95385.88
2019-02-04T11:33:38.415Z,95385.89
2019-02-04T11:36:04.766Z,95383.73
2019-02-04T11:38:31.208Z,95381.30
2019-02-04T11:40:57.650Z,95380.00
2019-02-04T11:43:24.037Z,95384.23
2019-02-04T11:45:50.402Z,95385.64
2019-02-04T11:48:16.794Z,95388.31
2019-02-04T11:50:43.286Z,95390.43
2019-02-04T11:53:09.700Z,95387.47
2019-02-04T11:55:36.253Z,95385.27
2019-02-04T11:58:02.617Z,95376.22
2019-02-04T12:00:29.114Z,95373.25
2019-02-04T12:02:55.507Z,95376.63
2019-02-04T12:05:21.848Z,95388.09
2019-02-04T12:07:48.280Z,95380.65
2019-02-04T12:10:14.684Z,95378.89
2019-02-04T12:12:41.047Z,95375.92
2019-02-04T12:15:07.389Z,95375.91
2019-02-04T12:17:33.752Z,95375.42
2019-02-04T12:20:00.325Z,95367.97
2019-02-04T12:22:26.542Z,95369.05
2019-02-04T12:24:52.927Z,95366.68
2019-02-04T12:27:19.362Z,95361.42
2019-02-04T12:29:45.738Z,95361.53
2019-02-04T12:32:12.090Z,95368.27
2019-02-04T12:34:38.549Z,95364.49
2019-02-04T12:37:05.126Z,95365.32
2019-02-04T12:39:31.353Z,95372.36
2019-02-04T12:41:57.719Z,95369.66
2019-02-04T12:44:24.185Z,95365.32
2019-02-04T12:46:52.683Z,95369.29
2019-02-04T12:49:20.072Z,95363.54
2019-02-04T12:51:45.511Z,95367.22
2019-02-04T12:54:12.019Z,95364.99
2019-02-04T12:56:38.390Z,95367.80
2019-02-04T12:59:04.746Z,95361.42
2019-02-04T13:01:31.155Z,95360.48
2019-02-04T13:03:57.614Z,95362.08
2019-02-04T13:06:23.962Z,95356.39
2019-02-04T13:08:50.322Z,95371.54
2019-02-04T13:11:16.654Z,95364.30
2019-02-04T13:13:43.065Z,95372.63
2019-02-04T13:16:09.473Z,95364.55
2019-02-04T13:18:35.992Z,95361.13
2019-02-04T13:21:02.361Z,95361.38
2019-02-04T13:23:30.082Z,95358.20
2019-02-04T13:25:56.439Z,95355.85
2019-02-04T13:28:22.811Z,95358.31
2019-02-04T13:30:49.160Z,95357.38
2019-02-04T13:33:15.543Z,95361.16
2019-02-04T13:35:41.907Z,95365.48
2019-02-04T13:38:08.257Z,95363.36
2019-02-04T13:40:34.618Z,95367.49
2019-02-04T13:43:01.141Z,95367.84
2019-02-04T13:45:27.571Z,95375.47
2019-02-04T13:47:53.922Z,95372.88
2019-02-04T13:50:20.331Z,95371.95
2019-02-04T13:52:46.732Z,95379.23
2019-02-04T13:55:13.196Z,95378.28
2019-02-04T13:57:40.787Z,95380.39
2019-02-04T14:00:05.886Z,95377.11
2019-02-04T14:02:32.270Z,95382.17
2019-02-04T14:04:58.737Z,95381.69
2019-02-04T14:07:25.148Z,95379.57
2019-02-04T14:09:51.557Z,95380.50
2019-02-04T14:12:17.881Z,95378.75
2019-02-04T14:14:44.541Z,95370.17
2019-02-04T14:17:10.988Z,95374.06
2019-02-04T14:19:37.384Z,95366.52
2019-02-04T14:22:09.453Z,95368.88
2019-02-04T14:24:30.126Z,95365.23
2019-02-04T14:26:56.516Z,95362.06
2019-02-04T14:29:22.923Z,95363.02
2019-02-04T14:31:49.284Z,95366.77
2019-02-04T14:34:15.706Z,95359.97
2019-02-04T14:36:42.186Z,95364.78
2019-02-04T14:39:08.513Z,95372.17
2019-02-04T14:41:34.926Z,95364.89
2019-02-04T14:44:01.438Z,95365.04
2019-02-04T14:46:27.809Z,95363.27
2019-02-04T14:48:54.183Z,95361.59
2019-02-04T14:51:20.683Z,95362.44
2019-02-04T14:53:46.977Z,95362.56
2019-02-04T14:56:13.411Z,95363.84
2019-02-04T14:58:39.844Z,95361.02
2019-02-04T15:01:06.348Z,95358.69
2019-02-04T15:03:32.746Z,95357.41
2019-02-04T15:05:59.152Z,95355.64
2019-02-04T15:08:33.000Z,95357.75
2019-02-04T15:10:51.919Z,95358.42
2019-02-04T15:13:18.460Z,95349.88
2019-02-04T15:15:44.787Z,95346.34
2019-02-04T15:18:11.070Z,95352.58
2019-02-04T15:20:37.477Z,95352.10
2019-02-04T15:23:03.877Z,95352.67
2019-02-04T15:25:30.243Z,95351.27
2019-02-04T15:27:56.571Z,95358.79
2019-02-04T15:30:23.001Z,95359.73
2019-02-04T15:32:49.364Z,95365.02
2019-02-04T15:35:15.843Z,95365.36
2019-02-04T15:37:42.215Z,95371.37
2019-02-04T15:40:08.635Z,95372.42
2019-02-04T15:42:34.956Z,95375.09
2019-02-04T15:45:01.304Z,95369.84
2019-02-04T15:47:27.684Z,95373.13
2019-02-04T15:49:54.064Z,95381.34
2019-02-04T15:52:20.425Z,95382.17
2019-02-04T15:54:47.015Z,95377.93
2019-02-04T15:57:13.372Z,95378.38
2019-02-04T15:59:39.758Z,95378.40
2019-02-04T16:02:06.126Z,95383.69
2019-02-04T16:04:32.491Z,95384.50
2019-02-04T16:06:58.834Z,95388.27
2019-02-04T16:09:25.226Z,95372.88
2019-02-04T16:11:53.561Z,95389.66
2019-02-04T16:14:19.893Z,95388.72
2019-02-04T16:16:46.177Z,95396.95
2019-02-04T16:19:12.557Z,95393.55
2019-02-04T16:21:39.029Z,95395.41
2019-02-04T16:24:05.401Z,95398.14
2019-02-04T16:26:31.817Z,95399.19
2019-02-04T16:28:58.149Z,95404.35
2019-02-04T16:31:24.499Z,95405.87
2019-02-04T16:33:50.845Z,95413.62
2019-02-04T16:36:17.202Z,95415.84
2019-02-04T16:38:43.542Z,95420.44
2019-02-04T16:41:09.919Z,95425.10
2019-02-04T16:43:36.269Z,95426.30
2019-02-04T16:46:02.661Z,95423.34
2019-02-04T16:48:29.015Z,95431.00
2019-02-04T16:51:10.561Z,95433.94
2019-02-04T16:53:21.736Z,95435.45
2019-02-04T16:55:48.131Z,95441.67
2019-02-04T16:58:14.472Z,95438.84
2019-02-04T17:00:40.815Z,95443.31
2019-02-04T17:03:07.164Z,95449.64
2019-02-04T17:05:33.498Z,95448.72
2019-02-04T17:07:59.864Z,95455.51
2019-02-04T17:10:26.179Z,95456.10
2019-02-04T17:12:52.578Z,95456.47
2019-02-04T17:15:19.082Z,95454.48
2019-02-04T17:17:45.424Z,95456.92
2019-02-04T17:20:11.799Z,95462.09
2019-02-04T17:22:38.261Z,95465.51
2019-02-04T17:25:04.500Z,95472.06
2019-02-04T17:27:30.840Z,95473.35
2019-02-04T17:29:57.230Z,95475.94
2019-02-04T17:32:23.665Z,95479.22
2019-02-04T17:34:50.018Z,95489.30
2019-02-04T17:37:16.397Z,95492.25
2019-02-04T17:39:42.679Z,95489.54
2019-02-04T17:42:09.011Z,95495.63
2019-02-04T17:44:35.415Z,95495.77
2019-02-04T17:47:01.802Z,95492.81
2019-02-04T17:49:28.151Z,95485.44
2019-02-04T17:51:54.495Z,95488.34
2019-02-04T17:54:20.825Z,95494.47
2019-02-04T17:56:47.206Z,95495.86
2019-02-04T17:59:13.515Z,95493.97
2019-02-04T18:01:39.858Z,95492.22
2019-02-04T18:04:06.248Z,95499.59
2019-02-04T18:06:32.631Z,95501.95
2019-02-04T18:08:58.910Z,95505.81
2019-02-04T18:11:25.240Z,95504.42
2019-02-04T18:13:51.564Z,95506.74
2019-02-04T18:16:17.975Z,95510.14
2019-02-04T18:18:44.334Z,95514.80
2019-02-04T18:21:10.715Z,95524.98
2019-02-04T18:23:45.547Z,95521.67
2019-02-04T18:26:03.376Z,95527.06
2019-02-04T18:28:29.747Z,95534.69
2019-02-04T18:30:56.131Z,95532.66
2019-02-04T18:33:22.463Z,95528.16
2019-02-04T18:35:48.865Z,95528.24
2019-02-04T18:38:15.207Z,95528.22
2019-02-04T18:40:41.570Z,95529.84
2019-02-04T18:43:07.944Z,95530.28
2019-02-04T18:45:34.353Z,95531.21
2019-02-04T18:48:00.604Z,95536.49
2019-02-04T18:50:26.938Z,95533.89
2019-02-04T18:52:53.279Z,95538.77
2019-02-04T18:55:19.720Z,95539.48
2019-02-04T18:57:46.059Z,95541.94
2019-02-04T19:00:12.476Z,95542.06
2019-02-04T19:02:38.823Z,95543.76
2019-02-04T19:05:05.157Z,95542.59
2019-02-04T19:07:31.537Z,95549.63
2019-02-04T19:09:57.958Z,95548.33
2019-02-04T19:12:24.271Z,95546.31
2019-02-04T19:14:50.660Z,95549.07
2019-02-04T19:17:16.990Z,95548.00
2019-02-04T19:19:43.326Z,95546.92
2019-02-04T19:22:09.665Z,95552.08
2019-02-04T19:24:36.026Z,95546.92
2019-02-04T19:27:02.455Z,95544.44
2019-02-04T19:29:28.859Z,95535.97
2019-02-04T19:31:55.240Z,95541.67
2019-02-04T19:34:21.589Z,95548.48
2019-02-04T19:36:47.927Z,95544.86
2019-02-04T19:39:14.344Z,95546.83
2019-02-04T19:41:40.708Z,95548.80
2019-02-04T19:44:07.078Z,95544.01
2019-02-04T19:46:33.344Z,95539.53
2019-02-04T19:48:59.684Z,95536.91
2019-02-04T19:51:26.015Z,95543.84
2019-02-04T19:53:52.346Z,95549.22
2019-02-04T19:56:18.716Z,95543.27
2019-02-04T19:58:45.093Z,95543.81
2019-02-04T20:01:11.401Z,95544.95
2019-02-04T20:03:37.761Z,95549.85
2019-02-04T20:06:04.094Z,95548.81
2019-02-04T20:08:30.415Z,95553.25
2019-02-04T20:10:56.784Z,95553.16
2019-02-04T20:13:23.108Z,95558.31
2019-02-04T20:15:49.445Z,95556.25
2019-02-04T20:18:15.827Z,95560.58
2019-02-04T20:20:42.656Z,95558.83
2019-02-04T20:23:08.520Z,95558.92
2019-02-04T20:25:34.853Z,95558.92
2019-02-04T20:28:01.231Z,95563.27
2019-02-04T20:30:27.609Z,95563.82
2019-02-04T20:32:53.986Z,95571.55
2019-02-04T20:35:20.307Z,95571.30
2019-02-04T20:37:46.649Z,95573.50
2019-02-04T20:40:12.985Z,95571.05
2019-02-04T20:42:39.320Z,95571.50
2019-02-04T20:45:05.670Z,95573.00
2019-02-04T20:47:32.049Z,95564.08
2019-02-04T20:49:58.377Z,95569.69
2019-02-04T20:52:24.703Z,95563.74
2019-02-04T20:54:51.041Z,95561.38
2019-02-04T20:57:17.375Z,95562.66
2019-02-04T20:59:43.732Z,95561.25
2019-02-04T21:02:10.063Z,95565.32
2019-02-04T21:04:36.465Z,95560.75
2019-02-04T21:07:02.890Z,95566.24
2019-02-04T21:09:29.230Z,95567.73
2019-02-04T21:11:55.593Z,95570.06
2019-02-04T21:14:21.916Z,95565.07
2019-02-04T21:16:48.296Z,95567.23
2019-02-04T21:19:14.631Z,95571.18
2019-02-04T21:21:40.953Z,95574.95
2019-02-04T21:24:07.318Z,95564.75
2019-02-04T21:26:33.668Z,95564.37
2019-02-04T21:29:00.002Z,95564.00
2019-02-04T21:31:26.329Z,95562.71
2019-02-04T21:33:52.663Z,95562.92
2019-02-04T21:36:18.996Z,95568.78
2019-02-04T21:38:45.327Z,95564.92
2019-02-04T21:41:11.657Z,95574.59
2019-02-04T21:43:38.042Z,95567.33
2019-02-04T21:46:04.385Z,95570.64
2019-02-04T21:48:30.711Z,95574.05
2019-02-04T21:50:57.108Z,95575.47
2019-02-04T21:53:23.511Z,95574.67
2019-02-04T21:55:49.826Z,95579.40
2019-02-04T21:58:16.159Z,95578.45
2019-02-04T22:00:42.509Z,95576.91
2019-02-04T22:03:08.833Z,95576.61
2019-02-04T22:05:35.175Z,95568.34
2019-02-04T22:08:01.523Z,95579.67
2019-02-04T22:10:27.875Z,95577.56
2019-02-04T22:12:54.228Z,95571.13
2019-02-04T22:15:20.566Z,95571.24
2019-02-04T22:17:46.897Z,95572.16
2019-02-04T22:20:13.253Z,95574.10
2019-02-04T22:22:39.597Z,95572.30
2019-02-04T22:25:05.931Z,95575.47
2019-02-04T22:27:32.286Z,95580.53
2019-02-04T22:29:58.617Z,95587.25
2019-02-04T22:32:25.006Z,95587.55
2019-02-04T22:34:51.442Z,95590.60
2019-02-04T22:37:17.788Z,95591.06
2019-02-04T22:39:44.127Z,95588.77
2019-02-04T22:42:10.485Z,95587.48
2019-02-04T22:44:36.814Z,95592.17
2019-02-04T22:47:03.155Z,95591.97
2019-02-04T22:49:29.527Z,95593.20
2019-02-04T22:51:55.812Z,95593.86
2019-02-04T22:54:22.189Z,95589.45
2019-02-04T22:56:48.653Z,95586.52
2019-02-04T22:59:14.974Z,95593.97
2019-02-04T23:01:41.307Z,95595.26
2019-02-04T23:04:07.665Z,95600.09
2019-02-04T23:06:34.045Z,95607.48
2019-02-04T23:09:00.375Z,95606.40
2019-02-04T23:11:26.713Z,95602.08
2019-02-04T23:13:53.034Z,95594.37
2019-02-04T23:16:19.432Z,95592.45
2019-02-04T23:18:45.764Z,95598.83
2019-02-04T23:21:12.136Z,95598.39
2019-02-04T23:23:38.497Z,95596.77
2019-02-04T23:26:04.845Z,95589.59
2019-02-04T23:28:31.118Z,95586.30
2019-02-04T23:30:57.455Z,95581.73
2019-02-04T23:33:33.928Z,95581.98
2019-02-04T23:35:50.184Z,95581.73
2019-02-04T23:38:16.516Z,95571.63
2019-02-04T23:40:42.876Z,95571.72
2019-02-04T23:43:09.208Z,95567.86
2019-02-04T23:45:35.536Z,95563.80
2019-02-04T23:48:01.863Z,95561.89
2019-02-04T23:50:28.206Z,95566.50
2019-02-04T23:52:54.565Z,95566.77
2019-02-04T23:55:20.854Z,95572.45
2019-02-04T23:57:47.188Z,95570.22
